sensor_id;sensor_type;location;lat;lon;timestamp;pressure;altitude;pressure_sealevel;temperature;humidity
60920;BME280;59039;52.108;19.942;2023-08-06T00:01:09;99473.69;;;19.15;89.43
60920;BME280;59039;52.108;19.942;2023-08-06T00:03:34;99404.05;;;19.15;89.28
60920;BME280;59039;52.108;19.942;2023-08-06T00:06:00;99401.55;;;19.14;89.42
60920;BME280;59039;52.108;19.942;2023-08-06T00:08:25;99413.31;;;19.13;89.92
60920;BME280;59039;52.108;19.942;2023-08-06T00:10:50;99412.20;;;19.11;89.67
60920;BME280;59039;52.108;19.942;2023-08-06T00:13:15;99417.22;;;19.09;89.79
60920;BME280;59039;52.108;19.942;2023-08-06T00:15:40;99438.60;;;19.05;89.45
60920;BME280;59039;52.108;19.942;2023-08-06T00:18:06;99443.65;;;18.98;89.59
60920;BME280;59039;52.108;19.942;2023-08-06T00:20:31;99415.66;;;18.92;89.89
60920;BME280;59039;52.108;19.942;2023-08-06T00:22:56;99386.35;;;18.88;89.79
60920;BME280;59039;52.108;19.942;2023-08-06T00:25:21;99354.88;;;18.84;89.70
60920;BME280;59039;52.108;19.942;2023-08-06T00:27:46;99330.87;;;18.81;89.70
60920;BME280;59039;52.108;19.942;2023-08-06T00:30:12;99319.73;;;18.77;89.88
60920;BME280;59039;52.108;19.942;2023-08-06T00:32:37;99317.60;;;18.74;90.19
60920;BME280;59039;52.108;19.942;2023-08-06T00:35:02;99324.31;;;18.72;90.83
60920;BME280;59039;52.108;19.942;2023-08-06T00:37:27;99339.70;;;18.69;90.33
60920;BME280;59039;52.108;19.942;2023-08-06T00:39:53;99351.44;;;18.67;90.88
60920;BME280;59039;52.108;19.942;2023-08-06T00:42:18;99353.59;;;18.65;90.80
60920;BME280;59039;52.108;19.942;2023-08-06T00:44:43;99350.69;;;18.64;90.99
60920;BME280;59039;52.108;19.942;2023-08-06T00:47:09;99340.05;;;18.62;90.72
60920;BME280;59039;52.108;19.942;2023-08-06T00:49:35;99336.67;;;18.61;90.95
60920;BME280;59039;52.108;19.942;2023-08-06T00:52:01;99339.69;;;18.60;91.03
60920;BME280;59039;52.108;19.942;2023-08-06T00:54:27;99330.84;;;18.57;91.15
60920;BME280;59039;52.108;19.942;2023-08-06T00:56:53;99329.10;;;18.54;91.15
60920;BME280;59039;52.108;19.942;2023-08-06T00:59:18;99326.88;;;18.53;91.29
60920;BME280;59039;52.108;19.942;2023-08-06T01:01:45;99323.02;;;18.51;91.50
60920;BME280;59039;52.108;19.942;2023-08-06T01:04:11;99323.31;;;18.51;91.87
60920;BME280;59039;52.108;19.942;2023-08-06T01:09:31;99309.91;;;18.50;91.83
60920;BME280;59039;52.108;19.942;2023-08-06T01:12:09;99312.80;;;18.51;91.63
60920;BME280;59039;52.108;19.942;2023-08-06T01:14:49;99295.66;;;18.52;91.78
60920;BME280;59039;52.108;19.942;2023-08-06T01:17:17;99290.59;;;18.54;92.03
60920;BME280;59039;52.108;19.942;2023-08-06T01:19:42;99294.07;;;18.56;91.84
60920;BME280;59039;52.108;19.942;2023-08-06T01:22:08;99286.24;;;18.56;91.19
60920;BME280;59039;52.108;19.942;2023-08-06T01:24:33;99290.80;;;18.56;91.73
60920;BME280;59039;52.108;19.942;2023-08-06T01:27:04;99289.86;;;18.57;91.73
60920;BME280;59039;52.108;19.942;2023-08-06T01:29:35;99282.02;;;18.58;91.85
60920;BME280;59039;52.108;19.942;2023-08-06T01:32:05;99277.61;;;18.58;92.25
60920;BME280;59039;52.108;19.942;2023-08-06T01:34:32;99280.91;;;18.58;92.21
60920;BME280;59039;52.108;19.942;2023-08-06T01:36:59;99289.39;;;18.61;92.20
60920;BME280;59039;52.108;19.942;2023-08-06T01:39:25;99278.94;;;18.63;92.41
60920;BME280;59039;52.108;19.942;2023-08-06T01:41:51;99263.38;;;18.64;92.46
60920;BME280;59039;52.108;19.942;2023-08-06T01:44:16;99275.79;;;18.64;92.47
60920;BME280;59039;52.108;19.942;2023-08-06T01:46:41;99278.87;;;18.64;92.66
60920;BME280;59039;52.108;19.942;2023-08-06T01:49:06;99285.46;;;18.66;93.16
60920;BME280;59039;52.108;19.942;2023-08-06T01:51:32;99289.70;;;18.68;92.79
60920;BME280;59039;52.108;19.942;2023-08-06T01:53:57;99289.95;;;18.71;92.99
60920;BME280;59039;52.108;19.942;2023-08-06T01:56:22;99298.16;;;18.74;93.29
60920;BME280;59039;52.108;19.942;2023-08-06T01:58:48;99298.81;;;18.77;93.07
60920;BME280;59039;52.108;19.942;2023-08-06T02:01:13;99293.48;;;18.79;92.69
60920;BME280;59039;52.108;19.942;2023-08-06T02:03:38;99288.16;;;18.82;92.54
60920;BME280;59039;52.108;19.942;2023-08-06T02:06:03;99283.16;;;18.85;92.63
60920;BME280;59039;52.108;19.942;2023-08-06T02:08:28;99276.39;;;18.87;92.93
60920;BME280;59039;52.108;19.942;2023-08-06T02:10:54;99287.76;;;18.90;93.30
60920;BME280;59039;52.108;19.942;2023-08-06T02:13:19;99302.20;;;18.93;93.19
60920;BME280;59039;52.108;19.942;2023-08-06T02:15:45;99313.55;;;18.95;93.27
60920;BME280;59039;52.108;19.942;2023-08-06T02:18:10;99326.73;;;18.98;93.41
60920;BME280;59039;52.108;19.942;2023-08-06T02:20:35;99343.25;;;19.01;92.84
60920;BME280;59039;52.108;19.942;2023-08-06T02:23:01;99353.66;;;19.02;92.62
60920;BME280;59039;52.108;19.942;2023-08-06T02:25:26;99360.41;;;19.04;92.70
60920;BME280;59039;52.108;19.942;2023-08-06T02:27:51;99340.61;;;19.05;92.71
60920;BME280;59039;52.108;19.942;2023-08-06T02:30:16;99286.56;;;19.06;92.57
60920;BME280;59039;52.108;19.942;2023-08-06T02:32:42;99243.00;;;19.07;92.64
60920;BME280;59039;52.108;19.942;2023-08-06T02:35:07;99198.78;;;19.07;92.78
60920;BME280;59039;52.108;19.942;2023-08-06T02:37:35;99105.73;;;19.08;92.83
60920;BME280;59039;52.108;19.942;2023-08-06T02:40:01;98991.55;;;19.07;92.58
60920;BME280;59039;52.108;19.942;2023-08-06T02:42:26;98960.89;;;19.08;92.45
60920;BME280;59039;52.108;19.942;2023-08-06T02:44:52;98969.77;;;19.08;92.67
60920;BME280;59039;52.108;19.942;2023-08-06T02:47:17;98960.09;;;19.07;92.67
60920;BME280;59039;52.108;19.942;2023-08-06T02:49:43;98971.02;;;19.05;92.44
60920;BME280;59039;52.108;19.942;2023-08-06T02:52:08;99009.75;;;19.00;92.63
60920;BME280;59039;52.108;19.942;2023-08-06T02:54:33;99048.92;;;18.99;92.71
60920;BME280;59039;52.108;19.942;2023-08-06T02:56:59;99057.43;;;18.97;92.86
60920;BME280;59039;52.108;19.942;2023-08-06T02:59:24;99044.52;;;18.96;92.83
60920;BME280;59039;52.108;19.942;2023-08-06T03:01:49;99030.63;;;18.93;92.86
60920;BME280;59039;52.108;19.942;2023-08-06T03:04:14;99036.91;;;18.90;92.71
60920;BME280;59039;52.108;19.942;2023-08-06T03:06:39;99053.02;;;18.89;92.75
60920;BME280;59039;52.108;19.942;2023-08-06T03:09:05;99058.84;;;18.84;93.61
60920;BME280;59039;52.108;19.942;2023-08-06T03:11:30;99052.05;;;18.80;93.39
60920;BME280;59039;52.108;19.942;2023-08-06T03:13:55;99037.96;;;18.76;94.24
60920;BME280;59039;52.108;19.942;2023-08-06T03:16:20;99029.44;;;18.74;93.40
60920;BME280;59039;52.108;19.942;2023-08-06T03:18:45;99022.86;;;18.73;94.20
60920;BME280;59039;52.108;19.942;2023-08-06T03:21:11;99025.81;;;18.69;94.76
60920;BME280;59039;52.108;19.942;2023-08-06T03:23:36;99024.91;;;18.66;94.81
60920;BME280;59039;52.108;19.942;2023-08-06T03:26:02;99019.30;;;18.66;94.81
60920;BME280;59039;52.108;19.942;2023-08-06T03:28:27;99015.84;;;18.66;94.98
60920;BME280;59039;52.108;19.942;2023-08-06T03:31:02;99009.02;;;18.67;95.36
60920;BME280;59039;52.108;19.942;2023-08-06T03:33:28;99006.06;;;18.68;96.24
60920;BME280;59039;52.108;19.942;2023-08-06T03:35:53;99006.21;;;18.69;96.99
60920;BME280;59039;52.108;19.942;2023-08-06T03:38:18;99006.42;;;18.71;95.61
60920;BME280;59039;52.108;19.942;2023-08-06T03:40:44;99005.02;;;18.73;96.63
60920;BME280;59039;52.108;19.942;2023-08-06T03:43:09;99004.17;;;18.72;96.96
60920;BME280;59039;52.108;19.942;2023-08-06T03:45:34;99004.77;;;18.71;97.15
60920;BME280;59039;52.108;19.942;2023-08-06T03:47:59;99001.20;;;18.72;96.26
60920;BME280;59039;52.108;19.942;2023-08-06T03:50:25;98996.34;;;18.71;96.39
60920;BME280;59039;52.108;19.942;2023-08-06T03:52:50;98990.55;;;18.73;96.33
60920;BME280;59039;52.108;19.942;2023-08-06T03:55:15;98977.98;;;18.72;96.39
60920;BME280;59039;52.108;19.942;2023-08-06T03:57:40;98969.58;;;18.73;97.17
60920;BME280;59039;52.108;19.942;2023-08-06T04:00:06;98960.14;;;18.74;97.21
60920;BME280;59039;52.108;19.942;2023-08-06T04:02:31;98958.02;;;18.73;96.85
60920;BME280;59039;52.108;19.942;2023-08-06T04:04:57;98962.21;;;18.74;97.12
60920;BME280;59039;52.108;19.942;2023-08-06T04:07:22;98966.61;;;18.73;97.23
60920;BME280;59039;52.108;19.942;2023-08-06T04:09:52;98964.48;;;18.72;96.99
60920;BME280;59039;52.108;19.942;2023-08-06T04:12:18;98963.17;;;18.70;97.39
60920;BME280;59039;52.108;19.942;2023-08-06T04:14:43;98962.23;;;18.69;97.69
60920;BME280;59039;52.108;19.942;2023-08-06T04:17:08;98966.97;;;18.69;97.52
60920;BME280;59039;52.108;19.942;2023-08-06T04:19:34;98967.59;;;18.70;97.98
60920;BME280;59039;52.108;19.942;2023-08-06T04:21:59;98979.23;;;18.71;97.58
60920;BME280;59039;52.108;19.942;2023-08-06T04:24:24;98978.09;;;18.72;96.98
60920;BME280;59039;52.108;19.942;2023-08-06T04:26:49;98973.27;;;18.73;97.08
60920;BME280;59039;52.108;19.942;2023-08-06T04:29:14;98978.27;;;18.73;98.71
60920;BME280;59039;52.108;19.942;2023-08-06T04:31:40;98970.39;;;18.73;98.03
60920;BME280;59039;52.108;19.942;2023-08-06T04:34:05;98960.89;;;18.74;97.38
60920;BME280;59039;52.108;19.942;2023-08-06T04:36:31;98958.16;;;18.75;98.02
60920;BME280;59039;52.108;19.942;2023-08-06T04:38:56;98949.52;;;18.75;97.34
60920;BME280;59039;52.108;19.942;2023-08-06T04:41:21;98946.44;;;18.75;97.65
60920;BME280;59039;52.108;19.942;2023-08-06T04:43:46;98938.39;;;18.74;97.60
60920;BME280;59039;52.108;19.942;2023-08-06T04:46:11;98946.81;;;18.74;97.82
60920;BME280;59039;52.108;19.942;2023-08-06T04:48:37;98941.41;;;18.74;97.82
60920;BME280;59039;52.108;19.942;2023-08-06T04:51:02;98939.43;;;18.74;98.16
60920;BME280;59039;52.108;19.942;2023-08-06T04:53:27;98933.47;;;18.76;97.58
60920;BME280;59039;52.108;19.942;2023-08-06T04:55:52;98926.68;;;18.77;97.59
60920;BME280;59039;52.108;19.942;2023-08-06T04:58:17;98921.28;;;18.78;97.67
60920;BME280;59039;52.108;19.942;2023-08-06T05:00:43;98915.20;;;18.80;97.47
60920;BME280;59039;52.108;19.942;2023-08-06T05:03:08;98913.33;;;18.83;97.27
60920;BME280;59039;52.108;19.942;2023-08-06T05:05:33;98911.00;;;18.85;97.44
60920;BME280;59039;52.108;19.942;2023-08-06T05:07:58;98913.61;;;18.86;97.34
60920;BME280;59039;52.108;19.942;2023-08-06T05:10:25;98910.73;;;18.88;97.31
60920;BME280;59039;52.108;19.942;2023-08-06T05:12:50;98913.22;;;18.91;97.69
60920;BME280;59039;52.108;19.942;2023-08-06T05:15:15;98913.69;;;18.93;97.49
60920;BME280;59039;52.108;19.942;2023-08-06T05:17:40;98910.58;;;18.95;97.18
60920;BME280;59039;52.108;19.942;2023-08-06T05:20:06;98909.48;;;18.97;97.12
60920;BME280;59039;52.108;19.942;2023-08-06T05:22:31;98908.96;;;18.99;97.27
60920;BME280;59039;52.108;19.942;2023-08-06T05:24:57;98903.77;;;19.01;97.18
60920;BME280;59039;52.108;19.942;2023-08-06T05:27:22;98909.90;;;19.03;97.19
60920;BME280;59039;52.108;19.942;2023-08-06T05:29:47;98906.46;;;19.05;97.03
60920;BME280;59039;52.108;19.942;2023-08-06T05:32:13;98902.94;;;19.07;96.95
60920;BME280;59039;52.108;19.942;2023-08-06T05:34:38;98898.27;;;19.09;97.06
60920;BME280;59039;52.108;19.942;2023-08-06T05:37:04;98894.92;;;19.09;97.09
60920;BME280;59039;52.108;19.942;2023-08-06T05:39:29;98896.39;;;19.10;97.12
60920;BME280;59039;52.108;19.942;2023-08-06T05:41:54;98896.75;;;19.12;97.06
60920;BME280;59039;52.108;19.942;2023-08-06T05:44:19;98897.99;;;19.14;97.14
60920;BME280;59039;52.108;19.942;2023-08-06T05:46:45;98894.59;;;19.14;97.61
60920;BME280;59039;52.108;19.942;2023-08-06T05:49:10;98887.30;;;19.14;97.36
60920;BME280;59039;52.108;19.942;2023-08-06T05:51:35;98881.05;;;19.15;97.24
60920;BME280;59039;52.108;19.942;2023-08-06T05:54:00;98879.43;;;19.17;97.09
60920;BME280;59039;52.108;19.942;2023-08-06T05:56:25;98877.86;;;19.19;97.22
60920;BME280;59039;52.108;19.942;2023-08-06T05:58:51;98878.59;;;19.19;97.32
60920;BME280;59039;52.108;19.942;2023-08-06T06:01:16;98876.25;;;19.21;97.21
60920;BME280;59039;52.108;19.942;2023-08-06T06:03:41;98883.77;;;19.23;97.21
60920;BME280;59039;52.108;19.942;2023-08-06T06:06:06;98884.51;;;19.24;97.01
60920;BME280;59039;52.108;19.942;2023-08-06T06:08:31;98876.53;;;19.25;97.20
60920;BME280;59039;52.108;19.942;2023-08-06T06:10:57;98872.44;;;19.27;97.16
60920;BME280;59039;52.108;19.942;2023-08-06T06:13:23;98865.86;;;19.29;97.22
60920;BME280;59039;52.108;19.942;2023-08-06T06:15:48;98866.45;;;19.31;97.07
60920;BME280;59039;52.108;19.942;2023-08-06T06:18:13;98854.52;;;19.33;97.01
60920;BME280;59039;52.108;19.942;2023-08-06T06:20:38;98850.67;;;19.36;97.11
60920;BME280;59039;52.108;19.942;2023-08-06T06:23:04;98849.16;;;19.39;97.33
60920;BME280;59039;52.108;19.942;2023-08-06T06:25:29;98841.30;;;19.39;97.20
60920;BME280;59039;52.108;19.942;2023-08-06T06:27:54;98838.45;;;19.41;97.16
60920;BME280;59039;52.108;19.942;2023-08-06T06:30:19;98831.83;;;19.44;97.21
60920;BME280;59039;52.108;19.942;2023-08-06T06:32:45;98827.29;;;19.46;97.32
60920;BME280;59039;52.108;19.942;2023-08-06T06:35:10;98825.77;;;19.48;97.13
60920;BME280;59039;52.108;19.942;2023-08-06T06:37:35;98823.95;;;19.50;97.02
60920;BME280;59039;52.108;19.942;2023-08-06T06:40:00;98819.52;;;19.53;97.14
60920;BME280;59039;52.108;19.942;2023-08-06T06:42:25;98819.49;;;19.55;97.11
60920;BME280;59039;52.108;19.942;2023-08-06T06:44:51;98823.50;;;19.57;96.96
60920;BME280;59039;52.108;19.942;2023-08-06T06:47:16;98809.20;;;19.59;97.01
60920;BME280;59039;52.108;19.942;2023-08-06T06:49:41;98798.15;;;19.62;96.95
60920;BME280;59039;52.108;19.942;2023-08-06T06:52:06;98797.52;;;19.64;97.03
60920;BME280;59039;52.108;19.942;2023-08-06T06:54:32;98795.95;;;19.66;96.97
60920;BME280;59039;52.108;19.942;2023-08-06T06:56:57;98786.80;;;19.69;96.83
60920;BME280;59039;52.108;19.942;2023-08-06T06:59:22;98782.80;;;19.71;96.83
60920;BME280;59039;52.108;19.942;2023-08-06T07:01:47;98778.04;;;19.72;96.78
60920;BME280;59039;52.108;19.942;2023-08-06T07:04:13;98779.34;;;19.74;96.84
60920;BME280;59039;52.108;19.942;2023-08-06T07:06:38;98777.21;;;19.75;96.73
60920;BME280;59039;52.108;19.942;2023-08-06T07:09:03;98776.95;;;19.77;96.70
60920;BME280;59039;52.108;19.942;2023-08-06T07:11:28;98774.21;;;19.79;96.76
60920;BME280;59039;52.108;19.942;2023-08-06T07:13:57;98773.48;;;19.81;96.70
60920;BME280;59039;52.108;19.942;2023-08-06T07:16:22;98772.95;;;19.83;96.75
60920;BME280;59039;52.108;19.942;2023-08-06T07:18:48;98775.04;;;19.86;96.65
60920;BME280;59039;52.108;19.942;2023-08-06T07:21:13;98778.52;;;19.89;96.73
60920;BME280;59039;52.108;19.942;2023-08-06T07:23:38;98774.46;;;19.90;96.60
60920;BME280;59039;52.108;19.942;2023-08-06T07:26:03;98773.23;;;19.92;96.44
60920;BME280;59039;52.108;19.942;2023-08-06T07:28:28;98770.04;;;19.93;96.46
60920;BME280;59039;52.108;19.942;2023-08-06T07:30:54;98766.92;;;19.95;96.41
60920;BME280;59039;52.108;19.942;2023-08-06T07:33:19;98765.90;;;19.97;96.43
60920;BME280;59039;52.108;19.942;2023-08-06T07:35:44;98767.48;;;19.98;96.23
60920;BME280;59039;52.108;19.942;2023-08-06T07:38:09;98768.52;;;19.99;96.10
60920;BME280;59039;52.108;19.942;2023-08-06T07:40:38;98767.48;;;19.99;95.98
60920;BME280;59039;52.108;19.942;2023-08-06T07:43:04;98759.00;;;20.01;96.00
60920;BME280;59039;52.108;19.942;2023-08-06T07:45:33;98747.77;;;20.02;95.98
60920;BME280;59039;52.108;19.942;2023-08-06T07:47:58;98745.48;;;20.04;96.02
60920;BME280;59039;52.108;19.942;2023-08-06T07:50:23;98744.33;;;20.06;96.03
60920;BME280;59039;52.108;19.942;2023-08-06T07:52:49;98747.95;;;20.09;96.13
60920;BME280;59039;52.108;19.942;2023-08-06T07:55:14;98745.45;;;20.10;95.96
60920;BME280;59039;52.108;19.942;2023-08-06T07:57:40;98748.34;;;20.13;95.98
60920;BME280;59039;52.108;19.942;2023-08-06T08:00:06;98747.37;;;20.14;95.82
60920;BME280;59039;52.108;19.942;2023-08-06T08:02:31;98747.77;;;20.16;95.85
60920;BME280;59039;52.108;19.942;2023-08-06T08:04:56;98747.73;;;20.18;95.78
60920;BME280;59039;52.108;19.942;2023-08-06T08:07:21;98744.68;;;20.21;95.72
60920;BME280;59039;52.108;19.942;2023-08-06T08:09:47;98751.71;;;20.23;95.72
60920;BME280;59039;52.108;19.942;2023-08-06T08:12:12;98751.80;;;20.27;95.73
60920;BME280;59039;52.108;19.942;2023-08-06T08:14:37;98752.80;;;20.28;95.62
60920;BME280;59039;52.108;19.942;2023-08-06T08:17:03;98756.30;;;20.30;95.51
60920;BME280;59039;52.108;19.942;2023-08-06T08:19:29;98755.81;;;20.31;95.53
60920;BME280;59039;52.108;19.942;2023-08-06T08:21:54;98751.70;;;20.32;95.43
60920;BME280;59039;52.108;19.942;2023-08-06T08:24:20;98746.64;;;20.34;95.42
60920;BME280;59039;52.108;19.942;2023-08-06T08:26:45;98747.27;;;20.36;95.43
60920;BME280;59039;52.108;19.942;2023-08-06T08:29:10;98740.89;;;20.37;95.43
60920;BME280;59039;52.108;19.942;2023-08-06T08:34:51;98744.17;;;20.41;95.27
60920;BME280;59039;52.108;19.942;2023-08-06T08:38:45;98740.37;;;20.46;95.14
60920;BME280;59039;52.108;19.942;2023-08-06T08:42:44;98736.03;;;20.49;95.18
60920;BME280;59039;52.108;19.942;2023-08-06T09:17:10;98687.67;;;20.94;94.95
60920;BME280;59039;52.108;19.942;2023-08-06T09:19:35;98680.68;;;21.02;94.80
60920;BME280;59039;52.108;19.942;2023-08-06T09:22:00;98674.83;;;21.02;94.65
60920;BME280;59039;52.108;19.942;2023-08-06T09:24:25;98672.02;;;21.03;94.76
60920;BME280;59039;52.108;19.942;2023-08-06T09:26:50;98672.86;;;21.05;94.62
60920;BME280;59039;52.108;19.942;2023-08-06T09:29:16;98673.19;;;21.06;94.34
60920;BME280;59039;52.108;19.942;2023-08-06T09:31:46;98669.95;;;21.08;94.13
60920;BME280;59039;52.108;19.942;2023-08-06T09:36:42;98663.35;;;21.13;93.89
60920;BME280;59039;52.108;19.942;2023-08-06T09:39:32;98663.16;;;21.17;93.85
60920;BME280;59039;52.108;19.942;2023-08-06T09:41:59;98655.98;;;21.19;93.51
60920;BME280;59039;52.108;19.942;2023-08-06T09:44:26;98656.73;;;21.23;93.41
60920;BME280;59039;52.108;19.942;2023-08-06T09:46:54;98648.23;;;21.27;93.30
60920;BME280;59039;52.108;19.942;2023-08-06T09:49:20;98649.70;;;21.32;93.05
60920;BME280;59039;52.108;19.942;2023-08-06T09:51:46;98641.93;;;21.36;93.14
60920;BME280;59039;52.108;19.942;2023-08-06T09:54:12;98642.98;;;21.41;93.00
60920;BME280;59039;52.108;19.942;2023-08-06T09:56:39;98640.80;;;21.48;92.76
60920;BME280;59039;52.108;19.942;2023-08-06T09:59:05;98645.80;;;21.54;92.95
60920;BME280;59039;52.108;19.942;2023-08-06T10:01:31;98646.05;;;21.62;92.17
60920;BME280;59039;52.108;19.942;2023-08-06T10:03:57;98641.05;;;21.67;91.73
60920;BME280;59039;52.108;19.942;2023-08-06T10:06:24;98634.27;;;21.74;91.52
60920;BME280;59039;52.108;19.942;2023-08-06T10:08:49;98635.55;;;21.80;91.34
60920;BME280;59039;52.108;19.942;2023-08-06T10:11:15;98631.71;;;21.87;91.10
60920;BME280;59039;52.108;19.942;2023-08-06T10:13:42;98633.38;;;21.94;90.92
60920;BME280;59039;52.108;19.942;2023-08-06T10:16:08;98627.25;;;22.00;90.55
60920;BME280;59039;52.108;19.942;2023-08-06T10:18:37;98628.31;;;22.06;90.13
60920;BME280;59039;52.108;19.942;2023-08-06T10:21:08;98620.96;;;22.14;89.80
60920;BME280;59039;52.108;19.942;2023-08-06T10:23:34;98614.90;;;22.21;89.40
60920;BME280;59039;52.108;19.942;2023-08-06T10:25:59;98616.48;;;22.27;89.23
60920;BME280;59039;52.108;19.942;2023-08-06T10:28:33;98611.56;;;22.37;88.32
60920;BME280;59039;52.108;19.942;2023-08-06T10:30:59;98602.53;;;22.45;88.37
60920;BME280;59039;52.108;19.942;2023-08-06T10:33:40;98599.43;;;22.54;88.07
60920;BME280;59039;52.108;19.942;2023-08-06T10:36:08;98596.66;;;22.63;87.57
60920;BME280;59039;52.108;19.942;2023-08-06T10:38:33;98591.33;;;22.72;87.27
60920;BME280;59039;52.108;19.942;2023-08-06T10:43:34;98582.61;;;22.87;86.79
60920;BME280;59039;52.108;19.942;2023-08-06T10:46:02;98584.41;;;22.97;86.79
60920;BME280;59039;52.108;19.942;2023-08-06T10:48:33;98579.09;;;23.06;86.22
60920;BME280;59039;52.108;19.942;2023-08-06T10:50:59;98573.58;;;23.17;85.98
60920;BME280;59039;52.108;19.942;2023-08-06T10:53:25;98572.76;;;23.28;85.31
60920;BME280;59039;52.108;19.942;2023-08-06T10:55:50;98565.63;;;23.39;84.86
60920;BME280;59039;52.108;19.942;2023-08-06T10:58:15;98561.91;;;23.47;84.50
60920;BME280;59039;52.108;19.942;2023-08-06T11:00:41;98552.44;;;23.54;83.98
60920;BME280;59039;52.108;19.942;2023-08-06T11:03:07;98546.36;;;23.61;84.10
60920;BME280;59039;52.108;19.942;2023-08-06T11:05:33;98541.78;;;23.68;84.03
60920;BME280;59039;52.108;19.942;2023-08-06T11:07:58;98550.08;;;23.74;83.64
60920;BME280;59039;52.108;19.942;2023-08-06T11:10:23;98544.48;;;23.82;82.95
60920;BME280;59039;52.108;19.942;2023-08-06T11:12:49;98536.17;;;23.90;82.27
60920;BME280;59039;52.108;19.942;2023-08-06T11:15:14;98523.96;;;23.98;81.98
60920;BME280;59039;52.108;19.942;2023-08-06T11:17:40;98514.46;;;24.05;81.80
60920;BME280;59039;52.108;19.942;2023-08-06T11:20:06;98512.85;;;24.12;81.50
60920;BME280;59039;52.108;19.942;2023-08-06T11:22:31;98508.71;;;24.22;81.34
60920;BME280;59039;52.108;19.942;2023-08-06T11:24:57;98502.67;;;24.32;80.68
60920;BME280;59039;52.108;19.942;2023-08-06T11:27:22;98490.75;;;24.44;80.20
60920;BME280;59039;52.108;19.942;2023-08-06T11:29:48;98481.89;;;24.55;80.02
60920;BME280;59039;52.108;19.942;2023-08-06T11:32:13;98479.44;;;24.66;78.57
60920;BME280;59039;52.108;19.942;2023-08-06T11:34:39;98480.13;;;24.74;78.61
60920;BME280;59039;52.108;19.942;2023-08-06T11:37:06;98479.02;;;24.83;79.07
60920;BME280;59039;52.108;19.942;2023-08-06T11:39:35;98470.05;;;24.91;79.04
60920;BME280;59039;52.108;19.942;2023-08-06T11:42:03;98465.31;;;24.99;77.98
60920;BME280;59039;52.108;19.942;2023-08-06T11:44:35;98447.52;;;25.07;77.19
60920;BME280;59039;52.108;19.942;2023-08-06T11:47:02;98459.04;;;25.16;77.01
60920;BME280;59039;52.108;19.942;2023-08-06T11:49:49;98449.95;;;25.24;76.27
60920;BME280;59039;52.108;19.942;2023-08-06T11:52:15;98445.36;;;25.34;75.48
60920;BME280;59039;52.108;19.942;2023-08-06T11:54:41;98430.63;;;25.40;75.30
60920;BME280;59039;52.108;19.942;2023-08-06T11:57:06;98416.29;;;25.48;75.00
60920;BME280;59039;52.108;19.942;2023-08-06T11:59:32;98407.13;;;25.54;74.92
60920;BME280;59039;52.108;19.942;2023-08-06T12:01:59;98407.63;;;25.58;74.65
60920;BME280;59039;52.108;19.942;2023-08-06T12:04:24;98405.23;;;25.62;74.57
60920;BME280;59039;52.108;19.942;2023-08-06T12:06:50;98402.84;;;25.64;74.36
60920;BME280;59039;52.108;19.942;2023-08-06T12:09:15;98398.08;;;25.67;74.28
60920;BME280;59039;52.108;19.942;2023-08-06T12:11:40;98401.90;;;25.71;73.87
60920;BME280;59039;52.108;19.942;2023-08-06T12:14:05;98398.32;;;25.76;73.05
60920;BME280;59039;52.108;19.942;2023-08-06T12:16:30;98388.32;;;25.80;72.82
60920;BME280;59039;52.108;19.942;2023-08-06T12:18:56;98388.61;;;25.83;72.84
60920;BME280;59039;52.108;19.942;2023-08-06T12:21:21;98387.52;;;25.86;72.44
60920;BME280;59039;52.108;19.942;2023-08-06T12:23:46;98392.56;;;25.87;72.31
60920;BME280;59039;52.108;19.942;2023-08-06T12:26:11;98413.77;;;25.86;71.57
60920;BME280;59039;52.108;19.942;2023-08-06T12:28:36;98425.68;;;25.87;71.55
60920;BME280;59039;52.108;19.942;2023-08-06T12:31:02;98419.99;;;25.89;71.39
60920;BME280;59039;52.108;19.942;2023-08-06T12:33:27;98411.86;;;25.93;71.25
60920;BME280;59039;52.108;19.942;2023-08-06T12:35:52;98405.58;;;25.99;69.76
60920;BME280;59039;52.108;19.942;2023-08-06T12:38:17;98395.11;;;26.08;70.12
60920;BME280;59039;52.108;19.942;2023-08-06T12:40:42;98395.37;;;26.15;69.73
60920;BME280;59039;52.108;19.942;2023-08-06T12:43:08;98396.18;;;26.22;69.58
60920;BME280;59039;52.108;19.942;2023-08-06T12:45:33;98394.74;;;26.28;69.34
60920;BME280;59039;52.108;19.942;2023-08-06T12:47:58;98406.08;;;26.32;68.75
60920;BME280;59039;52.108;19.942;2023-08-06T12:50:23;98413.30;;;26.36;68.97
60920;BME280;59039;52.108;19.942;2023-08-06T12:52:48;98408.36;;;26.37;68.48
60920;BME280;59039;52.108;19.942;2023-08-06T12:55:14;98409.55;;;26.37;68.44
60920;BME280;59039;52.108;19.942;2023-08-06T12:57:39;98451.52;;;26.35;68.06
60920;BME280;59039;52.108;19.942;2023-08-06T13:00:05;98455.64;;;26.30;68.13
60920;BME280;59039;52.108;19.942;2023-08-06T13:02:30;98447.16;;;26.20;68.39
60920;BME280;59039;52.108;19.942;2023-08-06T13:04:56;98433.62;;;26.10;68.66
60920;BME280;59039;52.108;19.942;2023-08-06T13:07:21;98435.33;;;25.97;68.87
60920;BME280;59039;52.108;19.942;2023-08-06T13:09:46;98433.22;;;25.86;69.03
60920;BME280;59039;52.108;19.942;2023-08-06T13:12:11;98439.52;;;25.76;69.71
60920;BME280;59039;52.108;19.942;2023-08-06T13:14:36;98457.08;;;25.69;69.81
60920;BME280;59039;52.108;19.942;2023-08-06T13:17:02;98458.92;;;25.61;69.24
60920;BME280;59039;52.108;19.942;2023-08-06T13:19:27;98464.41;;;25.55;69.23
60920;BME280;59039;52.108;19.942;2023-08-06T13:22:03;98469.56;;;25.48;69.21
60920;BME280;59039;52.108;19.942;2023-08-06T13:24:28;98488.58;;;25.42;68.88
60920;BME280;59039;52.108;19.942;2023-08-06T13:26:53;98500.20;;;25.38;68.82
60920;BME280;59039;52.108;19.942;2023-08-06T13:29:19;98505.53;;;25.34;68.80